sensor_id;sensor_type;location;lat;lon;timestamp;temperature;humidity
75010;DHT22;63564;46.840;18.336;2023-08-20T00:02:02;19.19;99.50
75010;DHT22;63564;46.840;18.336;2023-08-20T00:05:03;19.18;99.37
75010;DHT22;63564;46.840;18.336;2023-08-20T00:08:04;19.19;99.51
75010;DHT22;63564;46.840;18.336;2023-08-20T00:11:04;19.37;99.04
75010;DHT22;63564;46.840;18.336;2023-08-20T00:14:05;19.15;98.99
75010;DHT22;63564;46.840;18.336;2023-08-20T00:17:06;19.13;99.50
75010;DHT22;63564;46.840;18.336;2023-08-20T00:20:09;19.31;99.35
75010;DHT22;63564;46.840;18.336;2023-08-20T00:23:18;19.22;99.35
75010;DHT22;63564;46.840;18.336;2023-08-20T00:26:19;19.29;99.63
75010;DHT22;63564;46.840;18.336;2023-08-20T00:29:20;19.37;99.09
75010;DHT22;63564;46.840;18.336;2023-08-20T00:32:20;19.26;99.29
75010;DHT22;63564;46.840;18.336;2023-08-20T00:35:21;19.36;99.31
75010;DHT22;63564;46.840;18.336;2023-08-20T00:38:22;19.47;99.13
75010;DHT22;63564;46.840;18.336;2023-08-20T00:41:22;19.56;98.89
75010;DHT22;63564;46.840;18.336;2023-08-20T00:44:22;19.57;98.88
75010;DHT22;63564;46.840;18.336;2023-08-20T00:47:23;19.54;99.07
75010;DHT22;63564;46.840;18.336;2023-08-20T00:50:24;19.33;99.37
75010;DHT22;63564;46.840;18.336;2023-08-20T00:53:24;19.12;99.64
75010;DHT22;63564;46.840;18.336;2023-08-20T00:56:25;19.15;99.77
75010;DHT22;63564;46.840;18.336;2023-08-20T00:59:27;19.15;99.81
75010;DHT22;63564;46.840;18.336;2023-08-20T01:02:27;19.23;99.91
75010;DHT22;63564;46.840;18.336;2023-08-20T01:05:32;19.24;99.95
75010;DHT22;63564;46.840;18.336;2023-08-20T01:08:37;19.29;99.83
75010;DHT22;63564;46.840;18.336;2023-08-20T01:11:45;19.46;99.47
75010;DHT22;63564;46.840;18.336;2023-08-20T01:14:47;19.46;99.28
75010;DHT22;63564;46.840;18.336;2023-08-20T01:17:48;19.47;99.18
75010;DHT22;63564;46.840;18.336;2023-08-20T01:20:55;19.60;98.83
75010;DHT22;63564;46.840;18.336;2023-08-20T01:27:28;19.58;98.26
75010;DHT22;63564;46.840;18.336;2023-08-20T01:30:32;19.53;98.87
75010;DHT22;63564;46.840;18.336;2023-08-20T01:33:34;19.20;98.88
75010;DHT22;63564;46.840;18.336;2023-08-20T01:36:34;19.16;99.05
75010;DHT22;63564;46.840;18.336;2023-08-20T01:39:35;19.16;98.82
75010;DHT22;63564;46.840;18.336;2023-08-20T01:42:35;18.91;99.22
75010;DHT22;63564;46.840;18.336;2023-08-20T01:45:36;18.85;99.85
75010;DHT22;63564;46.840;18.336;2023-08-20T01:48:36;18.92;99.99
75010;DHT22;63564;46.840;18.336;2023-08-20T01:51:36;19.03;99.99
75010;DHT22;63564;46.840;18.336;2023-08-20T01:54:37;18.94;99.79
75010;DHT22;63564;46.840;18.336;2023-08-20T01:57:37;19.19;99.99
75010;DHT22;63564;46.840;18.336;2023-08-20T02:00:38;19.20;99.87
75010;DHT22;63564;46.840;18.336;2023-08-20T02:03:38;19.10;99.58
75010;DHT22;63564;46.840;18.336;2023-08-20T02:06:39;19.20;99.53
75010;DHT22;63564;46.840;18.336;2023-08-20T02:09:39;19.00;98.83
75010;DHT22;63564;46.840;18.336;2023-08-20T02:12:40;19.06;98.80
75010;DHT22;63564;46.840;18.336;2023-08-20T02:15:40;19.05;98.53
75010;DHT22;63564;46.840;18.336;2023-08-20T02:18:41;18.92;99.52
75010;DHT22;63564;46.840;18.336;2023-08-20T02:21:42;18.87;99.79
75010;DHT22;63564;46.840;18.336;2023-08-20T02:24:42;18.73;99.99
75010;DHT22;63564;46.840;18.336;2023-08-20T02:27:42;18.73;99.99
75010;DHT22;63564;46.840;18.336;2023-08-20T02:30:44;18.81;99.99
75010;DHT22;63564;46.840;18.336;2023-08-20T02:33:45;18.88;99.91
75010;DHT22;63564;46.840;18.336;2023-08-20T02:36:45;18.87;99.96
75010;DHT22;63564;46.840;18.336;2023-08-20T02:39:46;18.76;99.80
75010;DHT22;63564;46.840;18.336;2023-08-20T02:42:46;18.75;99.99
75010;DHT22;63564;46.840;18.336;2023-08-20T02:45:46;18.82;99.99
75010;DHT22;63564;46.840;18.336;2023-08-20T02:49:06;18.76;99.99
75010;DHT22;63564;46.840;18.336;2023-08-20T02:52:06;18.75;99.99
75010;DHT22;63564;46.840;18.336;2023-08-20T02:55:06;18.82;99.99
75010;DHT22;63564;46.840;18.336;2023-08-20T02:58:07;18.84;99.99
75010;DHT22;63564;46.840;18.336;2023-08-20T03:01:18;18.91;99.85
75010;DHT22;63564;46.840;18.336;2023-08-20T03:04:18;18.89;99.82
75010;DHT22;63564;46.840;18.336;2023-08-20T03:07:18;18.78;99.59
75010;DHT22;63564;46.840;18.336;2023-08-20T03:10:19;18.78;99.75
75010;DHT22;63564;46.840;18.336;2023-08-20T03:13:19;18.98;99.46
75010;DHT22;63564;46.840;18.336;2023-08-20T03:16:20;19.09;98.75
75010;DHT22;63564;46.840;18.336;2023-08-20T03:19:20;18.95;99.12
75010;DHT22;63564;46.840;18.336;2023-08-20T03:22:20;18.94;99.41
75010;DHT22;63564;46.840;18.336;2023-08-20T03:25:21;18.99;99.27
75010;DHT22;63564;46.840;18.336;2023-08-20T03:28:21;18.95;99.50
75010;DHT22;63564;46.840;18.336;2023-08-20T03:31:21;18.94;99.49
75010;DHT22;63564;46.840;18.336;2023-08-20T03:34:22;18.87;99.64
75010;DHT22;63564;46.840;18.336;2023-08-20T03:37:22;18.94;99.47
75010;DHT22;63564;46.840;18.336;2023-08-20T03:40:23;18.94;99.27
75010;DHT22;63564;46.840;18.336;2023-08-20T03:43:23;18.67;99.39
75010;DHT22;63564;46.840;18.336;2023-08-20T03:46:23;18.62;99.47
75010;DHT22;63564;46.840;18.336;2023-08-20T03:49:24;18.58;99.19
75010;DHT22;63564;46.840;18.336;2023-08-20T03:52:24;18.69;99.13
75010;DHT22;63564;46.840;18.336;2023-08-20T03:55:24;18.76;99.20
75010;DHT22;63564;46.840;18.336;2023-08-20T03:58:25;18.91;98.94
75010;DHT22;63564;46.840;18.336;2023-08-20T04:01:25;18.92;98.86
75010;DHT22;63564;46.840;18.336;2023-08-20T04:04:26;18.95;98.89
75010;DHT22;63564;46.840;18.336;2023-08-20T04:07:29;18.96;99.04
75010;DHT22;63564;46.840;18.336;2023-08-20T04:10:29;19.03;98.84
75010;DHT22;63564;46.840;18.336;2023-08-20T04:13:30;19.05;98.65
75010;DHT22;63564;46.840;18.336;2023-08-20T04:16:30;18.89;99.10
75010;DHT22;63564;46.840;18.336;2023-08-20T04:19:31;18.87;99.39
75010;DHT22;63564;46.840;18.336;2023-08-20T04:22:31;19.05;99.63
75010;DHT22;63564;46.840;18.336;2023-08-20T04:25:31;19.10;99.44
75010;DHT22;63564;46.840;18.336;2023-08-20T04:28:32;18.99;99.29
75010;DHT22;63564;46.840;18.336;2023-08-20T04:31:32;18.96;99.37
75010;DHT22;63564;46.840;18.336;2023-08-20T04:34:33;19.09;99.21
75010;DHT22;63564;46.840;18.336;2023-08-20T04:37:33;19.15;99.15
75010;DHT22;63564;46.840;18.336;2023-08-20T04:40:33;19.00;99.03
75010;DHT22;63564;46.840;18.336;2023-08-20T04:43:34;18.98;98.96
75010;DHT22;63564;46.840;18.336;2023-08-20T04:46:34;19.05;99.22
75010;DHT22;63564;46.840;18.336;2023-08-20T04:49:34;19.05;98.63
75010;DHT22;63564;46.840;18.336;2023-08-20T04:52:35;18.99;98.73
75010;DHT22;63564;46.840;18.336;2023-08-20T04:55:35;19.27;97.91
75010;DHT22;63564;46.840;18.336;2023-08-20T04:58:36;19.30;97.97
75010;DHT22;63564;46.840;18.336;2023-08-20T05:01:36;19.36;98.18
75010;DHT22;63564;46.840;18.336;2023-08-20T05:04:36;19.43;98.38
75010;DHT22;63564;46.840;18.336;2023-08-20T05:07:37;19.56;98.41
75010;DHT22;63564;46.840;18.336;2023-08-20T05:10:37;19.79;97.62
75010;DHT22;63564;46.840;18.336;2023-08-20T05:13:38;19.73;97.57
75010;DHT22;63564;46.840;18.336;2023-08-20T05:16:38;19.86;97.18
75010;DHT22;63564;46.840;18.336;2023-08-20T05:19:38;19.89;97.31
75010;DHT22;63564;46.840;18.336;2023-08-20T05:22:40;19.85;97.62
75010;DHT22;63564;46.840;18.336;2023-08-20T05:25:40;19.81;97.95
75010;DHT22;63564;46.840;18.336;2023-08-20T05:28:41;19.77;98.28
75010;DHT22;63564;46.840;18.336;2023-08-20T05:31:41;19.88;98.40
75010;DHT22;63564;46.840;18.336;2023-08-20T05:34:42;20.04;98.09
75010;DHT22;63564;46.840;18.336;2023-08-20T05:37:42;20.28;97.90
75010;DHT22;63564;46.840;18.336;2023-08-20T05:40:43;20.53;97.25
75010;DHT22;63564;46.840;18.336;2023-08-20T05:43:43;20.78;96.70
75010;DHT22;63564;46.840;18.336;2023-08-20T05:46:44;20.91;96.31
75010;DHT22;63564;46.840;18.336;2023-08-20T05:49:44;21.07;95.93
75010;DHT22;63564;46.840;18.336;2023-08-20T05:52:45;20.84;97.05
75010;DHT22;63564;46.840;18.336;2023-08-20T05:55:45;20.92;97.25
75010;DHT22;63564;46.840;18.336;2023-08-20T05:58:46;21.01;96.40
75010;DHT22;63564;46.840;18.336;2023-08-20T06:01:46;21.09;96.42
75010;DHT22;63564;46.840;18.336;2023-08-20T06:04:46;21.16;96.33
75010;DHT22;63564;46.840;18.336;2023-08-20T06:07:47;21.36;96.24
75010;DHT22;63564;46.840;18.336;2023-08-20T06:10:47;21.64;95.07
75010;DHT22;63564;46.840;18.336;2023-08-20T06:13:48;21.80;94.92
75010;DHT22;63564;46.840;18.336;2023-08-20T06:16:48;21.93;94.81
75010;DHT22;63564;46.840;18.336;2023-08-20T06:19:48;22.27;91.77
75010;DHT22;63564;46.840;18.336;2023-08-20T06:22:49;22.41;92.50
75010;DHT22;63564;46.840;18.336;2023-08-20T06:25:52;22.52;90.53
75010;DHT22;63564;46.840;18.336;2023-08-20T06:28:52;22.73;90.55
75010;DHT22;63564;46.840;18.336;2023-08-20T06:31:53;22.87;89.71
75010;DHT22;63564;46.840;18.336;2023-08-20T06:34:53;23.15;85.58
75010;DHT22;63564;46.840;18.336;2023-08-20T06:37:53;23.34;85.46
75010;DHT22;63564;46.840;18.336;2023-08-20T06:40:54;23.25;87.06
75010;DHT22;63564;46.840;18.336;2023-08-20T06:43:54;23.51;85.34
75010;DHT22;63564;46.840;18.336;2023-08-20T06:46:55;23.76;84.15
75010;DHT22;63564;46.840;18.336;2023-08-20T06:49:55;24.06;81.78
75010;DHT22;63564;46.840;18.336;2023-08-20T06:52:55;24.20;82.49
75010;DHT22;63564;46.840;18.336;2023-08-20T06:55:56;24.21;83.19
75010;DHT22;63564;46.840;18.336;2023-08-20T06:58:56;24.36;81.93
75010;DHT22;63564;46.840;18.336;2023-08-20T07:01:56;24.54;81.43
75010;DHT22;63564;46.840;18.336;2023-08-20T07:04:57;24.79;80.59
75010;DHT22;63564;46.840;18.336;2023-08-20T07:07:57;24.98;79.66
75010;DHT22;63564;46.840;18.336;2023-08-20T07:10:58;25.16;79.57
75010;DHT22;63564;46.840;18.336;2023-08-20T07:13:58;25.26;78.70
75010;DHT22;63564;46.840;18.336;2023-08-20T07:16:59;25.48;77.15
75010;DHT22;63564;46.840;18.336;2023-08-20T07:20:00;25.57;80.92
75010;DHT22;63564;46.840;18.336;2023-08-20T07:23:01;25.74;78.32
75010;DHT22;63564;46.840;18.336;2023-08-20T07:26:08;25.84;75.71
75010;DHT22;63564;46.840;18.336;2023-08-20T07:29:09;25.99;75.09
75010;DHT22;63564;46.840;18.336;2023-08-20T07:32:10;26.04;75.25
75010;DHT22;63564;46.840;18.336;2023-08-20T07:35:10;26.05;76.56
75010;DHT22;63564;46.840;18.336;2023-08-20T07:38:11;26.12;76.39
75010;DHT22;63564;46.840;18.336;2023-08-20T07:41:11;26.37;77.13
75010;DHT22;63564;46.840;18.336;2023-08-20T07:44:12;26.51;74.78
75010;DHT22;63564;46.840;18.336;2023-08-20T07:47:12;26.54;73.46
75010;DHT22;63564;46.840;18.336;2023-08-20T07:50:13;26.53;75.45
75010;DHT22;63564;46.840;18.336;2023-08-20T07:53:13;26.65;74.79
75010;DHT22;63564;46.840;18.336;2023-08-20T07:56:13;26.76;72.85
75010;DHT22;63564;46.840;18.336;2023-08-20T07:59:14;26.92;72.29
75010;DHT22;63564;46.840;18.336;2023-08-20T08:02:14;26.90;71.71
75010;DHT22;63564;46.840;18.336;2023-08-20T08:05:15;27.16;74.16
75010;DHT22;63564;46.840;18.336;2023-08-20T08:08:16;27.22;71.37
75010;DHT22;63564;46.840;18.336;2023-08-20T08:11:16;27.47;69.75
75010;DHT22;63564;46.840;18.336;2023-08-20T08:14:17;27.57;71.38
75010;DHT22;63564;46.840;18.336;2023-08-20T08:17:17;27.63;70.73
75010;DHT22;63564;46.840;18.336;2023-08-20T08:20:17;27.79;70.14
75010;DHT22;63564;46.840;18.336;2023-08-20T08:23:18;27.84;69.01
75010;DHT22;63564;46.840;18.336;2023-08-20T08:26:18;27.87;69.34
75010;DHT22;63564;46.840;18.336;2023-08-20T08:29:19;28.15;67.97
75010;DHT22;63564;46.840;18.336;2023-08-20T08:32:19;28.17;67.42
75010;DHT22;63564;46.840;18.336;2023-08-20T08:35:19;28.37;67.59
75010;DHT22;63564;46.840;18.336;2023-08-20T08:38:20;28.44;66.28
75010;DHT22;63564;46.840;18.336;2023-08-20T08:41:22;28.38;67.55
75010;DHT22;63564;46.840;18.336;2023-08-20T08:44:27;28.65;67.14
75010;DHT22;63564;46.840;18.336;2023-08-20T08:47:29;28.65;67.79
75010;DHT22;63564;46.840;18.336;2023-08-20T08:50:31;28.69;66.45
75010;DHT22;63564;46.840;18.336;2023-08-20T08:53:32;28.82;66.14
75010;DHT22;63564;46.840;18.336;2023-08-20T08:56:33;28.97;65.14
75010;DHT22;63564;46.840;18.336;2023-08-20T08:59:33;28.82;66.40
75010;DHT22;63564;46.840;18.336;2023-08-20T09:02:33;29.14;65.40
75010;DHT22;63564;46.840;18.336;2023-08-20T09:05:48;29.28;64.16
75010;DHT22;63564;46.840;18.336;2023-08-20T09:08:49;29.31;65.32
75010;DHT22;63564;46.840;18.336;2023-08-20T09:11:49;29.37;66.60
75010;DHT22;63564;46.840;18.336;2023-08-20T09:14:51;29.58;62.32
75010;DHT22;63564;46.840;18.336;2023-08-20T09:17:51;29.50;62.32
75010;DHT22;63564;46.840;18.336;2023-08-20T09:20:52;29.47;67.13
75010;DHT22;63564;46.840;18.336;2023-08-20T09:23:52;29.50;61.99
75010;DHT22;63564;46.840;18.336;2023-08-20T09:26:57;29.39;67.43
75010;DHT22;63564;46.840;18.336;2023-08-20T09:29:58;29.50;62.27
75010;DHT22;63564;46.840;18.336;2023-08-20T09:33:11;29.68;63.19
75010;DHT22;63564;46.840;18.336;2023-08-20T09:36:13;29.85;60.52
75010;DHT22;63564;46.840;18.336;2023-08-20T09:39:14;29.93;60.79
75010;DHT22;63564;46.840;18.336;2023-08-20T09:42:15;30.13;61.64
75010;DHT22;63564;46.840;18.336;2023-08-20T09:45:16;30.21;62.10
75010;DHT22;63564;46.840;18.336;2023-08-20T09:48:18;30.17;62.78
75010;DHT22;63564;46.840;18.336;2023-08-20T09:51:26;30.18;61.46
75010;DHT22;63564;46.840;18.336;2023-08-20T09:57:52;29.73;67.88
75010;DHT22;63564;46.840;18.336;2023-08-20T10:00:54;30.07;62.04
75010;DHT22;63564;46.840;18.336;2023-08-20T10:03:54;30.37;63.11
75010;DHT22;63564;46.840;18.336;2023-08-20T10:06:55;30.48;60.33
75010;DHT22;63564;46.840;18.336;2023-08-20T10:10:06;30.75;58.73
75010;DHT22;63564;46.840;18.336;2023-08-20T10:13:07;30.83;58.21
75010;DHT22;63564;46.840;18.336;2023-08-20T10:16:08;30.82;57.08
75010;DHT22;63564;46.840;18.336;2023-08-20T10:19:08;30.69;60.94
75010;DHT22;63564;46.840;18.336;2023-08-20T10:22:09;30.83;57.96
75010;DHT22;63564;46.840;18.336;2023-08-20T10:25:11;30.81;63.63
75010;DHT22;63564;46.840;18.336;2023-08-20T10:28:27;30.61;59.44
75010;DHT22;63564;46.840;18.336;2023-08-20T10:31:32;31.20;56.67
75010;DHT22;63564;46.840;18.336;2023-08-20T10:34:35;31.29;58.91
75010;DHT22;63564;46.840;18.336;2023-08-20T10:37:35;31.30;60.35
75010;DHT22;63564;46.840;18.336;2023-08-20T10:40:55;31.39;56.27
75010;DHT22;63564;46.840;18.336;2023-08-20T10:43:59;31.48;57.95
75010;DHT22;63564;46.840;18.336;2023-08-20T10:46:59;31.25;58.94
75010;DHT22;63564;46.840;18.336;2023-08-20T10:50:00;31.43;55.99
75010;DHT22;63564;46.840;18.336;2023-08-20T10:53:03;30.88;57.39
75010;DHT22;63564;46.840;18.336;2023-08-20T10:56:22;31.06;56.03
75010;DHT22;63564;46.840;18.336;2023-08-20T10:59:26;31.36;55.90
75010;DHT22;63564;46.840;18.336;2023-08-20T11:02:27;31.53;54.91
75010;DHT22;63564;46.840;18.336;2023-08-20T11:05:28;31.40;54.92
75010;DHT22;63564;46.840;18.336;2023-08-20T11:08:29;31.81;54.43
75010;DHT22;63564;46.840;18.336;2023-08-20T11:11:29;31.91;52.58
75010;DHT22;63564;46.840;18.336;2023-08-20T11:14:30;31.95;54.27
75010;DHT22;63564;46.840;18.336;2023-08-20T11:17:30;31.27;55.80
75010;DHT22;63564;46.840;18.336;2023-08-20T11:20:31;31.80;52.39
75010;DHT22;63564;46.840;18.336;2023-08-20T11:23:31;31.89;53.28
75010;DHT22;63564;46.840;18.336;2023-08-20T11:26:36;31.96;51.29
75010;DHT22;63564;46.840;18.336;2023-08-20T11:29:42;31.87;50.75
75010;DHT22;63564;46.840;18.336;2023-08-20T11:32:44;31.91;52.82
75010;DHT22;63564;46.840;18.336;2023-08-20T11:35:45;32.14;50.08
75010;DHT22;63564;46.840;18.336;2023-08-20T11:38:50;32.23;49.77
75010;DHT22;63564;46.840;18.336;2023-08-20T11:41:52;32.16;51.09
75010;DHT22;63564;46.840;18.336;2023-08-20T11:44:55;32.42;52.00
75010;DHT22;63564;46.840;18.336;2023-08-20T11:47:56;32.66;48.96
75010;DHT22;63564;46.840;18.336;2023-08-20T11:51:00;31.74;53.88
75010;DHT22;63564;46.840;18.336;2023-08-20T11:54:01;31.99;52.99
75010;DHT22;63564;46.840;18.336;2023-08-20T11:57:02;32.33;49.85
75010;DHT22;63564;46.840;18.336;2023-08-20T12:00:04;32.21;51.14
75010;DHT22;63564;46.840;18.336;2023-08-20T12:03:09;32.08;50.89
75010;DHT22;63564;46.840;18.336;2023-08-20T12:06:20;32.28;50.60
75010;DHT22;63564;46.840;18.336;2023-08-20T12:09:22;32.12;50.66
75010;DHT22;63564;46.840;18.336;2023-08-20T12:12:23;32.12;51.65
75010;DHT22;63564;46.840;18.336;2023-08-20T12:15:24;32.49;50.42
75010;DHT22;63564;46.840;18.336;2023-08-20T12:18:24;32.97;49.83
75010;DHT22;63564;46.840;18.336;2023-08-20T12:21:25;32.90;48.46
75010;DHT22;63564;46.840;18.336;2023-08-20T12:24:25;33.05;50.99
75010;DHT22;63564;46.840;18.336;2023-08-20T12:27:26;32.76;49.42
75010;DHT22;63564;46.840;18.336;2023-08-20T12:30:27;32.90;48.41
75010;DHT22;63564;46.840;18.336;2023-08-20T12:33:28;32.66;49.72
75010;DHT22;63564;46.840;18.336;2023-08-20T12:36:29;32.96;50.12
75010;DHT22;63564;46.840;18.336;2023-08-20T12:39:29;33.22;47.05
75010;DHT22;63564;46.840;18.336;2023-08-20T12:42:30;32.92;48.49
75010;DHT22;63564;46.840;18.336;2023-08-20T12:45:30;32.80;56.21
75010;DHT22;63564;46.840;18.336;2023-08-20T12:48:30;32.84;54.81
75010;DHT22;63564;46.840;18.336;2023-08-20T12:51:31;33.25;47.65
75010;DHT22;63564;46.840;18.336;2023-08-20T12:54:31;33.65;46.95
75010;DHT22;63564;46.840;18.336;2023-08-20T12:57:34;33.74;44.57
75010;DHT22;63564;46.840;18.336;2023-08-20T13:00:36;33.59;48.84
75010;DHT22;63564;46.840;18.336;2023-08-20T13:03:36;33.92;46.40
75010;DHT22;63564;46.840;18.336;2023-08-20T13:06:38;34.09;47.78
75010;DHT22;63564;46.840;18.336;2023-08-20T13:09:39;34.38;44.99
75010;DHT22;63564;46.840;18.336;2023-08-20T13:12:41;33.35;46.91
75010;DHT22;63564;46.840;18.336;2023-08-20T13:15:42;33.82;46.11
75010;DHT22;63564;46.840;18.336;2023-08-20T13:18:43;33.21;52.87
75010;DHT22;63564;46.840;18.336;2023-08-20T13:21:43;33.58;48.08
75010;DHT22;63564;46.840;18.336;2023-08-20T13:24:43;33.85;46.82
75010;DHT22;63564;46.840;18.336;2023-08-20T13:27:44;32.71;55.45
75010;DHT22;63564;46.840;18.336;2023-08-20T13:30:44;33.86;46.96
75010;DHT22;63564;46.840;18.336;2023-08-20T13:33:45;33.41;47.97
75010;DHT22;63564;46.840;18.336;2023-08-20T13:36:46;33.00;49.34
75010;DHT22;63564;46.840;18.336;2023-08-20T13:39:47;33.26;48.71
75010;DHT22;63564;46.840;18.336;2023-08-20T13:42:48;32.83;49.61
75010;DHT22;63564;46.840;18.336;2023-08-20T13:45:48;33.62;47.98
75010;DHT22;63564;46.840;18.336;2023-08-20T13:48:48;34.06;47.49
75010;DHT22;63564;46.840;18.336;2023-08-20T13:51:49;34.09;46.15
75010;DHT22;63564;46.840;18.336;2023-08-20T13:54:50;34.40;45.49
75010;DHT22;63564;46.840;18.336;2023-08-20T13:57:50;34.66;45.68
75010;DHT22;63564;46.840;18.336;2023-08-20T14:00:51;34.85;44.92
75010;DHT22;63564;46.840;18.336;2023-08-20T14:03:52;34.58;45.33
75010;DHT22;63564;46.840;18.336;2023-08-20T14:06:53;34.98;43.85
75010;DHT22;63564;46.840;18.336;2023-08-20T14:09:54;35.94;42.26
75010;DHT22;63564;46.840;18.336;2023-08-20T14:12:55;36.40;40.60
75010;DHT22;63564;46.840;18.336;2023-08-20T14:15:55;34.85;47.56
75010;DHT22;63564;46.840;18.336;2023-08-20T14:18:56;35.95;45.02
75010;DHT22;63564;46.840;18.336;2023-08-20T14:21:56;36.91;40.98
75010;DHT22;63564;46.840;18.336;2023-08-20T14:24:57;37.22;39.81
75010;DHT22;63564;46.840;18.336;2023-08-20T14:27:57;37.61;39.21
75010;DHT22;63564;46.840;18.336;2023-08-20T14:31:01;37.97;38.52
75010;DHT22;63564;46.840;18.336;2023-08-20T14:34:04;38.16;37.66
75010;DHT22;63564;46.840;18.336;2023-08-20T14:37:04;37.74;39.43
75010;DHT22;63564;46.840;18.336;2023-08-20T14:40:05;36.29;41.78
75010;DHT22;63564;46.840;18.336;2023-08-20T14:43:07;35.43;42.59
75010;DHT22;63564;46.840;18.336;2023-08-20T14:46:08;34.74;45.56
75010;DHT22;63564;46.840;18.336;2023-08-20T14:49:08;34.18;50.26
75010;DHT22;63564;46.840;18.336;2023-08-20T14:52:09;33.79;47.75
75010;DHT22;63564;46.840;18.336;2023-08-20T14:55:09;33.21;48.73
75010;DHT22;63564;46.840;18.336;2023-08-20T14:58:10;32.98;49.98
75010;DHT22;63564;46.840;18.336;2023-08-20T15:01:11;33.21;48.92
75010;DHT22;63564;46.840;18.336;2023-08-20T15:04:11;33.22;47.59
75010;DHT22;63564;46.840;18.336;2023-08-20T15:07:12;33.07;47.86
75010;DHT22;63564;46.840;18.336;2023-08-20T15:10:12;33.04;47.34
75010;DHT22;63564;46.840;18.336;2023-08-20T15:13:13;32.76;48.64
75010;DHT22;63564;46.840;18.336;2023-08-20T15:16:14;32.67;49.01
75010;DHT22;63564;46.840;18.336;2023-08-20T15:19:14;32.26;51.80
75010;DHT22;63564;46.840;18.336;2023-08-20T15:22:15;32.18;52.38
75010;DHT22;63564;46.840;18.336;2023-08-20T15:25:15;32.18;50.36
75010;DHT22;63564;46.840;18.336;2023-08-20T15:28:16;32.12;50.47
75010;DHT22;63564;46.840;18.336;2023-08-20T15:31:17;32.09;51.11
75010;DHT22;63564;46.840;18.336;2023-08-20T15:34:17;32.12;50.65
75010;DHT22;63564;46.840;18.336;2023-08-20T15:37:18;32.04;50.90
75010;DHT22;63564;46.840;18.336;2023-08-20T15:40:19;31.89;51.76
75010;DHT22;63564;46.840;18.336;2023-08-20T15:43:20;31.84;51.26
75010;DHT22;63564;46.840;18.336;2023-08-20T15:46:21;31.81;51.14
75010;DHT22;63564;46.840;18.336;2023-08-20T15:49:23;31.87;51.68
75010;DHT22;63564;46.840;18.336;2023-08-20T15:52:24;31.63;53.42
75010;DHT22;63564;46.840;18.336;2023-08-20T15:55:24;31.47;53.75
75010;DHT22;63564;46.840;18.336;2023-08-20T15:58:25;31.44;52.45
75010;DHT22;63564;46.840;18.336;2023-08-20T16:01:25;31.13;54.48
75010;DHT22;63564;46.840;18.336;2023-08-20T16:04:28;31.10;55.16
75010;DHT22;63564;46.840;18.336;2023-08-20T16:07:28;31.20;53.57
75010;DHT22;63564;46.840;18.336;2023-08-20T16:10:30;31.27;53.14
75010;DHT22;63564;46.840;18.336;2023-08-20T16:13:31;31.31;53.73
75010;DHT22;63564;46.840;18.336;2023-08-20T16:16:31;31.20;54.68
75010;DHT22;63564;46.840;18.336;2023-08-20T16:19:33;31.13;54.38
75010;DHT22;63564;46.840;18.336;2023-08-20T16:22:33;31.13;54.24
75010;DHT22;63564;46.840;18.336;2023-08-20T16:25:34;31.12;54.49
75010;DHT22;63564;46.840;18.336;2023-08-20T16:28:37;30.86;55.69
75010;DHT22;63564;46.840;18.336;2023-08-20T16:31:37;30.91;54.81
75010;DHT22;63564;46.840;18.336;2023-08-20T16:34:38;30.85;55.22
75010;DHT22;63564;46.840;18.336;2023-08-20T16:37:39;30.76;55.92
75010;DHT22;63564;46.840;18.336;2023-08-20T16:40:39;30.71;55.60
75010;DHT22;63564;46.840;18.336;2023-08-20T16:43:40;30.58;56.26
75010;DHT22;63564;46.840;18.336;2023-08-20T16:46:40;30.53;55.99
75010;DHT22;63564;46.840;18.336;2023-08-20T16:49:41;30.36;56.70
75010;DHT22;63564;46.840;18.336;2023-08-20T16:52:43;30.36;57.13
75010;DHT22;63564;46.840;18.336;2023-08-20T16:55:50;30.26;57.72
75010;DHT22;63564;46.840;18.336;2023-08-20T16:58:51;30.13;58.40
75010;DHT22;63564;46.840;18.336;2023-08-20T17:01:55;30.02;58.58
75010;DHT22;63564;46.840;18.336;2023-08-20T17:04:57;29.90;59.40
75010;DHT22;63564;46.840;18.336;2023-08-20T17:07:57;29.83;59.57
75010;DHT22;63564;46.840;18.336;2023-08-20T17:11:09;29.73;59.91
75010;DHT22;63564;46.840;18.336;2023-08-20T17:14:10;29.55;60.19
75010;DHT22;63564;46.840;18.336;2023-08-20T17:17:10;29.54;60.06
75010;DHT22;63564;46.840;18.336;2023-08-20T17:20:11;29.50;60.29
75010;DHT22;63564;46.840;18.336;2023-08-20T17:23:12;29.31;61.06
75010;DHT22;63564;46.840;18.336;2023-08-20T17:26:14;29.10;61.49
75010;DHT22;63564;46.840;18.336;2023-08-20T17:29:15;28.99;62.06
75010;DHT22;63564;46.840;18.336;2023-08-20T17:32:16;28.87;62.47
75010;DHT22;63564;46.840;18.336;2023-08-20T17:35:17;28.65;63.43
75010;DHT22;63564;46.840;18.336;2023-08-20T17:38:17;28.52;63.40
75010;DHT22;63564;46.840;18.336;2023-08-20T17:41:18;28.39;64.12
75010;DHT22;63564;46.840;18.336;2023-08-20T17:44:18;28.20;65.00
75010;DHT22;63564;46.840;18.336;2023-08-20T17:47:19;28.14;65.32
75010;DHT22;63564;46.840;18.336;2023-08-20T17:50:20;27.94;65.96
75010;DHT22;63564;46.840;18.336;2023-08-20T17:53:24;27.76;66.93
75010;DHT22;63564;46.840;18.336;2023-08-20T17:56:28;27.60;67.63
75010;DHT22;63564;46.840;18.336;2023-08-20T17:59:30;27.46;68.44
75010;DHT22;63564;46.840;18.336;2023-08-20T18:02:31;27.57;68.47
75010;DHT22;63564;46.840;18.336;2023-08-20T18:05:32;27.56;68.47
75010;DHT22;63564;46.840;18.336;2023-08-20T18:08:32;27.36;69.12
75010;DHT22;63564;46.840;18.336;2023-08-20T18:11:33;27.24;69.80
75010;DHT22;63564;46.840;18.336;2023-08-20T18:14:34;27.09;70.04
75010;DHT22;63564;46.840;18.336;2023-08-20T18:17:34;26.98;70.84
75010;DHT22;63564;46.840;18.336;2023-08-20T18:20:35;26.91;71.22
75010;DHT22;63564;46.840;18.336;2023-08-20T18:23:36;26.88;71.55
75010;DHT22;63564;46.840;18.336;2023-08-20T18:26:38;26.80;71.85
75010;DHT22;63564;46.840;18.336;2023-08-20T18:29:39;26.70;72.41
75010;DHT22;63564;46.840;18.336;2023-08-20T18:32:40;26.67;72.63
75010;DHT22;63564;46.840;18.336;2023-08-20T18:35:41;26.54;73.07
75010;DHT22;63564;46.840;18.336;2023-08-20T18:38:42;26.43;73.42
75010;DHT22;63564;46.840;18.336;2023-08-20T18:41:43;26.35;73.75
75010;DHT22;63564;46.840;18.336;2023-08-20T18:44:45;26.33;73.92
75010;DHT22;63564;46.840;18.336;2023-08-20T18:47:45;26.23;74.17
75010;DHT22;63564;46.840;18.336;2023-08-20T18:50:46;26.18;74.57
75010;DHT22;63564;46.840;18.336;2023-08-20T18:53:48;26.08;75.00